sensor_id;sensor_type;location;lat;lon;timestamp;P1;durP1;ratioP1;P2;durP2;ratioP2
53052;SDS011;38934;52.690;6.184;2024-03-25T00:02:02;17.50;;;3.65;;
53052;SDS011;38934;52.690;6.184;2024-03-25T00:04:28;23.73;;;3.97;;
53052;SDS011;38934;52.690;6.184;2024-03-25T00:06:54;21.13;;;4.18;;
53052;SDS011;38934;52.690;6.184;2024-03-25T00:09:19;17.77;;;3.92;;
53052;SDS011;38934;52.690;6.184;2024-03-25T00:11:45;29.95;;;4.80;;
53052;SDS011;38934;52.690;6.184;2024-03-25T00:14:11;14.85;;;4.00;;
53052;SDS011;38934;52.690;6.184;2024-03-25T00:16:36;21.65;;;3.95;;
53052;SDS011;38934;52.690;6.184;2024-03-25T00:19:02;21.80;;;3.65;;
53052;SDS011;38934;52.690;6.184;2024-03-25T00:21:28;16.60;;;3.97;;
53052;SDS011;38934;52.690;6.184;2024-03-25T00:23:54;21.27;;;4.07;;
53052;SDS011;38934;52.690;6.184;2024-03-25T00:26:23;20.10;;;3.78;;
53052;SDS011;38934;52.690;6.184;2024-03-25T00:28:49;23.20;;;4.20;;
53052;SDS011;38934;52.690;6.184;2024-03-25T00:31:14;19.27;;;3.80;;
53052;SDS011;38934;52.690;6.184;2024-03-25T00:33:40;16.95;;;3.33;;
53052;SDS011;38934;52.690;6.184;2024-03-25T00:36:06;18.25;;;3.38;;
53052;SDS011;38934;52.690;6.184;2024-03-25T00:38:32;17.45;;;3.83;;
53052;SDS011;38934;52.690;6.184;2024-03-25T00:40:58;14.85;;;4.05;;
53052;SDS011;38934;52.690;6.184;2024-03-25T00:43:24;18.88;;;4.18;;
53052;SDS011;38934;52.690;6.184;2024-03-25T00:45:49;18.60;;;3.50;;
53052;SDS011;38934;52.690;6.184;2024-03-25T00:48:15;15.73;;;3.50;;
53052;SDS011;38934;52.690;6.184;2024-03-25T00:50:40;19.23;;;3.53;;
53052;SDS011;38934;52.690;6.184;2024-03-25T00:53:06;20.13;;;4.13;;
53052;SDS011;38934;52.690;6.184;2024-03-25T00:55:33;15.60;;;3.55;;
53052;SDS011;38934;52.690;6.184;2024-03-25T00:58:01;14.10;;;3.35;;
53052;SDS011;38934;52.690;6.184;2024-03-25T01:00:27;17.60;;;3.67;;
53052;SDS011;38934;52.690;6.184;2024-03-25T01:02:53;14.40;;;3.20;;
53052;SDS011;38934;52.690;6.184;2024-03-25T01:05:18;14.98;;;4.00;;
53052;SDS011;38934;52.690;6.184;2024-03-25T01:07:44;17.90;;;3.92;;
53052;SDS011;38934;52.690;6.184;2024-03-25T01:10:10;17.45;;;3.80;;
53052;SDS011;38934;52.690;6.184;2024-03-25T01:12:35;17.70;;;4.32;;
53052;SDS011;38934;52.690;6.184;2024-03-25T01:15:01;18.17;;;4.28;;
53052;SDS011;38934;52.690;6.184;2024-03-25T01:17:28;20.48;;;3.85;;
53052;SDS011;38934;52.690;6.184;2024-03-25T01:19:54;20.63;;;4.43;;
53052;SDS011;38934;52.690;6.184;2024-03-25T01:22:19;18.55;;;3.78;;
53052;SDS011;38934;52.690;6.184;2024-03-25T01:24:45;15.35;;;3.78;;
53052;SDS011;38934;52.690;6.184;2024-03-25T01:27:11;20.90;;;3.50;;
53052;SDS011;38934;52.690;6.184;2024-03-25T01:29:37;23.30;;;4.03;;
53052;SDS011;38934;52.690;6.184;2024-03-25T01:32:02;18.00;;;3.75;;
53052;SDS011;38934;52.690;6.184;2024-03-25T01:34:29;27.15;;;4.75;;
53052;SDS011;38934;52.690;6.184;2024-03-25T01:36:55;16.10;;;3.67;;
53052;SDS011;38934;52.690;6.184;2024-03-25T01:39:21;14.27;;;3.75;;
53052;SDS011;38934;52.690;6.184;2024-03-25T01:41:46;20.30;;;4.07;;
53052;SDS011;38934;52.690;6.184;2024-03-25T01:44:12;20.00;;;4.03;;
53052;SDS011;38934;52.690;6.184;2024-03-25T01:46:38;25.05;;;4.32;;
53052;SDS011;38934;52.690;6.184;2024-03-25T01:49:04;22.17;;;4.43;;
53052;SDS011;38934;52.690;6.184;2024-03-25T01:51:30;20.20;;;4.00;;
53052;SDS011;38934;52.690;6.184;2024-03-25T01:53:57;15.40;;;3.70;;
53052;SDS011;38934;52.690;6.184;2024-03-25T01:56:24;20.23;;;4.05;;
53052;SDS011;38934;52.690;6.184;2024-03-25T01:58:51;17.48;;;3.60;;
53052;SDS011;38934;52.690;6.184;2024-03-25T02:01:17;19.27;;;3.42;;
53052;SDS011;38934;52.690;6.184;2024-03-25T02:03:45;20.23;;;4.25;;
53052;SDS011;38934;52.690;6.184;2024-03-25T02:06:15;14.50;;;3.65;;
53052;SDS011;38934;52.690;6.184;2024-03-25T02:08:43;19.08;;;3.95;;
53052;SDS011;38934;52.690;6.184;2024-03-25T02:11:09;17.60;;;3.72;;
53052;SDS011;38934;52.690;6.184;2024-03-25T02:13:36;14.38;;;3.60;;
53052;SDS011;38934;52.690;6.184;2024-03-25T02:16:02;18.60;;;3.97;;
53052;SDS011;38934;52.690;6.184;2024-03-25T02:18:29;14.73;;;3.28;;
53052;SDS011;38934;52.690;6.184;2024-03-25T02:20:56;18.42;;;3.58;;
53052;SDS011;38934;52.690;6.184;2024-03-25T02:23:22;17.88;;;4.28;;
53052;SDS011;38934;52.690;6.184;2024-03-25T02:25:51;13.80;;;3.75;;
53052;SDS011;38934;52.690;6.184;2024-03-25T02:28:17;14.38;;;3.10;;
53052;SDS011;38934;52.690;6.184;2024-03-25T02:30:43;13.43;;;3.50;;
53052;SDS011;38934;52.690;6.184;2024-03-25T02:33:09;17.05;;;3.58;;
53052;SDS011;38934;52.690;6.184;2024-03-25T02:35:35;18.20;;;3.55;;
53052;SDS011;38934;52.690;6.184;2024-03-25T02:38:04;16.15;;;3.72;;
53052;SDS011;38934;52.690;6.184;2024-03-25T02:40:30;13.75;;;3.33;;
53052;SDS011;38934;52.690;6.184;2024-03-25T02:42:56;15.80;;;3.33;;
53052;SDS011;38934;52.690;6.184;2024-03-25T02:45:23;19.27;;;3.30;;
53052;SDS011;38934;52.690;6.184;2024-03-25T02:47:49;12.65;;;3.25;;
53052;SDS011;38934;52.690;6.184;2024-03-25T02:50:16;12.98;;;3.22;;
53052;SDS011;38934;52.690;6.184;2024-03-25T02:52:41;16.33;;;3.58;;
53052;SDS011;38934;52.690;6.184;2024-03-25T02:55:07;16.90;;;3.88;;
53052;SDS011;38934;52.690;6.184;2024-03-25T02:57:33;14.82;;;3.65;;
53052;SDS011;38934;52.690;6.184;2024-03-25T02:59:59;14.52;;;3.53;;
53052;SDS011;38934;52.690;6.184;2024-03-25T03:02:24;15.90;;;3.90;;
53052;SDS011;38934;52.690;6.184;2024-03-25T03:04:50;20.65;;;4.22;;
53052;SDS011;38934;52.690;6.184;2024-03-25T03:07:16;21.67;;;3.80;;
53052;SDS011;38934;52.690;6.184;2024-03-25T03:09:42;16.40;;;3.30;;
53052;SDS011;38934;52.690;6.184;2024-03-25T03:12:07;21.52;;;4.32;;
53052;SDS011;38934;52.690;6.184;2024-03-25T03:14:33;15.93;;;3.40;;
53052;SDS011;38934;52.690;6.184;2024-03-25T03:16:59;17.48;;;3.30;;
53052;SDS011;38934;52.690;6.184;2024-03-25T03:19:25;22.33;;;3.95;;
53052;SDS011;38934;52.690;6.184;2024-03-25T03:21:51;18.25;;;3.90;;
53052;SDS011;38934;52.690;6.184;2024-03-25T03:24:17;12.65;;;3.17;;
53052;SDS011;38934;52.690;6.184;2024-03-25T03:26:43;23.83;;;3.30;;
53052;SDS011;38934;52.690;6.184;2024-03-25T03:29:09;12.90;;;3.45;;
53052;SDS011;38934;52.690;6.184;2024-03-25T03:31:35;17.80;;;3.45;;
53052;SDS011;38934;52.690;6.184;2024-03-25T03:34:01;16.92;;;3.40;;
53052;SDS011;38934;52.690;6.184;2024-03-25T03:36:27;11.70;;;3.22;;
53052;SDS011;38934;52.690;6.184;2024-03-25T03:38:53;15.20;;;2.90;;
53052;SDS011;38934;52.690;6.184;2024-03-25T03:41:19;12.25;;;2.90;;
53052;SDS011;38934;52.690;6.184;2024-03-25T03:43:45;14.25;;;3.33;;
53052;SDS011;38934;52.690;6.184;2024-03-25T03:46:11;11.10;;;3.17;;
53052;SDS011;38934;52.690;6.184;2024-03-25T03:48:36;12.98;;;2.90;;
53052;SDS011;38934;52.690;6.184;2024-03-25T03:51:04;14.68;;;2.97;;
53052;SDS011;38934;52.690;6.184;2024-03-25T03:53:30;11.02;;;2.75;;
53052;SDS011;38934;52.690;6.184;2024-03-25T03:55:57;12.20;;;3.28;;
53052;SDS011;38934;52.690;6.184;2024-03-25T03:58:24;19.23;;;3.50;;
53052;SDS011;38934;52.690;6.184;2024-03-25T04:00:50;13.13;;;2.92;;
53052;SDS011;38934;52.690;6.184;2024-03-25T04:03:17;10.30;;;2.50;;
53052;SDS011;38934;52.690;6.184;2024-03-25T04:05:43;13.07;;;3.40;;
53052;SDS011;38934;52.690;6.184;2024-03-25T04:08:09;13.60;;;2.90;;
53052;SDS011;38934;52.690;6.184;2024-03-25T04:10:35;11.00;;;3.33;;
53052;SDS011;38934;52.690;6.184;2024-03-25T04:13:01;18.85;;;3.20;;
53052;SDS011;38934;52.690;6.184;2024-03-25T04:15:40;12.52;;;3.13;;
53052;SDS011;38934;52.690;6.184;2024-03-25T04:18:07;16.45;;;3.92;;
53052;SDS011;38934;52.690;6.184;2024-03-25T04:20:40;11.73;;;3.30;;
53052;SDS011;38934;52.690;6.184;2024-03-25T04:25:33;16.65;;;3.40;;
53052;SDS011;38934;52.690;6.184;2024-03-25T04:27:59;18.70;;;4.05;;
53052;SDS011;38934;52.690;6.184;2024-03-25T04:30:25;16.17;;;3.67;;
53052;SDS011;38934;52.690;6.184;2024-03-25T04:32:51;14.65;;;3.20;;
53052;SDS011;38934;52.690;6.184;2024-03-25T04:35:16;11.35;;;3.00;;
53052;SDS011;38934;52.690;6.184;2024-03-25T04:37:42;18.73;;;3.10;;
53052;SDS011;38934;52.690;6.184;2024-03-25T04:40:08;16.88;;;3.08;;
53052;SDS011;38934;52.690;6.184;2024-03-25T04:42:35;13.82;;;3.03;;
53052;SDS011;38934;52.690;6.184;2024-03-25T04:45:01;17.48;;;4.30;;
53052;SDS011;38934;52.690;6.184;2024-03-25T04:47:27;16.83;;;3.42;;
53052;SDS011;38934;52.690;6.184;2024-03-25T04:49:52;16.92;;;4.18;;
53052;SDS011;38934;52.690;6.184;2024-03-25T04:52:18;16.85;;;3.92;;
53052;SDS011;38934;52.690;6.184;2024-03-25T04:54:48;13.68;;;3.60;;
53052;SDS011;38934;52.690;6.184;2024-03-25T04:57:14;17.33;;;3.92;;
53052;SDS011;38934;52.690;6.184;2024-03-25T04:59:39;16.33;;;3.80;;
53052;SDS011;38934;52.690;6.184;2024-03-25T05:02:05;10.98;;;3.50;;
53052;SDS011;38934;52.690;6.184;2024-03-25T05:04:31;18.67;;;3.75;;
53052;SDS011;38934;52.690;6.184;2024-03-25T05:06:57;18.05;;;3.40;;
53052;SDS011;38934;52.690;6.184;2024-03-25T05:09:22;18.60;;;3.70;;
53052;SDS011;38934;52.690;6.184;2024-03-25T05:11:48;14.00;;;3.25;;
53052;SDS011;38934;52.690;6.184;2024-03-25T05:14:14;10.63;;;3.08;;
53052;SDS011;38934;52.690;6.184;2024-03-25T05:16:40;12.90;;;3.17;;
53052;SDS011;38934;52.690;6.184;2024-03-25T05:19:05;13.07;;;3.47;;
53052;SDS011;38934;52.690;6.184;2024-03-25T05:21:31;14.18;;;3.08;;
53052;SDS011;38934;52.690;6.184;2024-03-25T05:23:57;16.67;;;3.25;;
53052;SDS011;38934;52.690;6.184;2024-03-25T05:26:23;11.68;;;3.45;;
53052;SDS011;38934;52.690;6.184;2024-03-25T05:28:55;12.45;;;3.53;;
53052;SDS011;38934;52.690;6.184;2024-03-25T05:31:22;12.18;;;2.75;;
53052;SDS011;38934;52.690;6.184;2024-03-25T05:33:48;10.80;;;2.70;;
53052;SDS011;38934;52.690;6.184;2024-03-25T05:36:14;9.98;;;2.80;;
53052;SDS011;38934;52.690;6.184;2024-03-25T05:38:40;13.30;;;3.08;;
53052;SDS011;38934;52.690;6.184;2024-03-25T05:41:07;9.48;;;2.80;;
53052;SDS011;38934;52.690;6.184;2024-03-25T05:43:34;8.98;;;2.45;;
53052;SDS011;38934;52.690;6.184;2024-03-25T05:45:59;11.77;;;2.97;;
53052;SDS011;38934;52.690;6.184;2024-03-25T05:48:25;12.70;;;2.97;;
53052;SDS011;38934;52.690;6.184;2024-03-25T05:51:01;6.72;;;2.95;;
53052;SDS011;38934;52.690;6.184;2024-03-25T05:53:31;10.95;;;2.55;;
53052;SDS011;38934;52.690;6.184;2024-03-25T05:55:57;9.32;;;3.33;;
53052;SDS011;38934;52.690;6.184;2024-03-25T05:58:24;11.15;;;3.42;;
53052;SDS011;38934;52.690;6.184;2024-03-25T06:00:51;10.80;;;3.20;;
53052;SDS011;38934;52.690;6.184;2024-03-25T06:03:18;12.43;;;3.00;;
53052;SDS011;38934;52.690;6.184;2024-03-25T06:05:44;8.88;;;2.50;;
53052;SDS011;38934;52.690;6.184;2024-03-25T06:08:10;11.10;;;3.05;;
53052;SDS011;38934;52.690;6.184;2024-03-25T06:10:45;12.40;;;3.10;;
53052;SDS011;38934;52.690;6.184;2024-03-25T06:13:11;10.20;;;2.88;;
53052;SDS011;38934;52.690;6.184;2024-03-25T06:15:36;9.55;;;2.92;;
53052;SDS011;38934;52.690;6.184;2024-03-25T06:18:02;10.30;;;3.25;;
53052;SDS011;38934;52.690;6.184;2024-03-25T06:20:28;8.23;;;2.88;;
53052;SDS011;38934;52.690;6.184;2024-03-25T06:22:53;11.52;;;3.47;;
53052;SDS011;38934;52.690;6.184;2024-03-25T06:25:19;14.73;;;3.05;;
53052;SDS011;38934;52.690;6.184;2024-03-25T06:27:44;12.07;;;3.38;;
53052;SDS011;38934;52.690;6.184;2024-03-25T06:30:10;12.93;;;3.20;;
53052;SDS011;38934;52.690;6.184;2024-03-25T06:32:55;11.48;;;3.20;;
53052;SDS011;38934;52.690;6.184;2024-03-25T06:35:39;11.20;;;3.65;;
53052;SDS011;38934;52.690;6.184;2024-03-25T06:38:08;18.95;;;3.60;;
53052;SDS011;38934;52.690;6.184;2024-03-25T06:40:34;12.38;;;2.80;;
53052;SDS011;38934;52.690;6.184;2024-03-25T06:43:00;13.20;;;3.00;;
53052;SDS011;38934;52.690;6.184;2024-03-25T06:45:25;18.45;;;4.13;;
53052;SDS011;38934;52.690;6.184;2024-03-25T06:47:51;15.48;;;3.30;;
53052;SDS011;38934;52.690;6.184;2024-03-25T06:50:16;12.73;;;3.30;;
53052;SDS011;38934;52.690;6.184;2024-03-25T06:52:42;20.80;;;4.07;;
53052;SDS011;38934;52.690;6.184;2024-03-25T06:55:08;21.33;;;3.88;;
53052;SDS011;38934;52.690;6.184;2024-03-25T06:57:33;14.80;;;3.63;;
53052;SDS011;38934;52.690;6.184;2024-03-25T06:59:59;15.70;;;3.92;;
53052;SDS011;38934;52.690;6.184;2024-03-25T07:02:25;13.35;;;3.80;;
53052;SDS011;38934;52.690;6.184;2024-03-25T07:04:50;11.32;;;3.47;;
53052;SDS011;38934;52.690;6.184;2024-03-25T07:07:16;14.95;;;3.55;;
53052;SDS011;38934;52.690;6.184;2024-03-25T07:09:42;14.55;;;3.67;;
53052;SDS011;38934;52.690;6.184;2024-03-25T07:12:08;17.05;;;4.00;;
53052;SDS011;38934;52.690;6.184;2024-03-25T07:14:33;16.17;;;3.58;;
53052;SDS011;38934;52.690;6.184;2024-03-25T07:16:59;14.07;;;3.65;;
53052;SDS011;38934;52.690;6.184;2024-03-25T07:19:25;17.35;;;3.75;;
53052;SDS011;38934;52.690;6.184;2024-03-25T07:21:50;21.35;;;4.07;;
53052;SDS011;38934;52.690;6.184;2024-03-25T07:24:16;15.82;;;3.67;;
53052;SDS011;38934;52.690;6.184;2024-03-25T07:26:41;16.27;;;3.60;;
53052;SDS011;38934;52.690;6.184;2024-03-25T07:29:07;16.40;;;4.28;;
53052;SDS011;38934;52.690;6.184;2024-03-25T07:31:33;18.58;;;3.80;;
53052;SDS011;38934;52.690;6.184;2024-03-25T07:33:59;12.85;;;4.35;;
53052;SDS011;38934;52.690;6.184;2024-03-25T07:36:25;18.85;;;3.53;;
53052;SDS011;38934;52.690;6.184;2024-03-25T07:38:50;13.02;;;3.53;;
53052;SDS011;38934;52.690;6.184;2024-03-25T07:41:16;19.05;;;4.28;;
53052;SDS011;38934;52.690;6.184;2024-03-25T07:43:41;15.40;;;3.90;;
53052;SDS011;38934;52.690;6.184;2024-03-25T07:46:07;13.40;;;3.78;;
53052;SDS011;38934;52.690;6.184;2024-03-25T07:48:33;16.00;;;4.78;;
53052;SDS011;38934;52.690;6.184;2024-03-25T07:51:00;17.38;;;4.00;;
53052;SDS011;38934;52.690;6.184;2024-03-25T07:53:26;17.15;;;3.72;;
53052;SDS011;38934;52.690;6.184;2024-03-25T07:55:52;13.32;;;3.55;;
53052;SDS011;38934;52.690;6.184;2024-03-25T07:58:17;15.15;;;3.90;;
53052;SDS011;38934;52.690;6.184;2024-03-25T08:00:43;12.38;;;3.83;;
53052;SDS011;38934;52.690;6.184;2024-03-25T08:03:08;14.02;;;4.13;;
53052;SDS011;38934;52.690;6.184;2024-03-25T08:05:34;12.82;;;4.03;;
53052;SDS011;38934;52.690;6.184;2024-03-25T08:08:00;15.77;;;4.28;;
53052;SDS011;38934;52.690;6.184;2024-03-25T08:10:25;15.48;;;4.15;;
53052;SDS011;38934;52.690;6.184;2024-03-25T08:12:51;13.40;;;4.45;;
53052;SDS011;38934;52.690;6.184;2024-03-25T08:15:17;17.02;;;4.30;;
53052;SDS011;38934;52.690;6.184;2024-03-25T08:17:42;18.58;;;4.10;;
53052;SDS011;38934;52.690;6.184;2024-03-25T08:20:08;18.23;;;4.13;;
53052;SDS011;38934;52.690;6.184;2024-03-25T08:22:34;16.17;;;4.18;;
53052;SDS011;38934;52.690;6.184;2024-03-25T08:25:00;15.95;;;4.22;;
53052;SDS011;38934;52.690;6.184;2024-03-25T08:27:26;14.68;;;3.63;;
53052;SDS011;38934;52.690;6.184;2024-03-25T08:29:51;15.90;;;3.63;;
53052;SDS011;38934;52.690;6.184;2024-03-25T08:32:19;15.93;;;3.80;;
53052;SDS011;38934;52.690;6.184;2024-03-25T08:34:45;17.17;;;3.70;;
53052;SDS011;38934;52.690;6.184;2024-03-25T08:37:10;15.65;;;3.90;;
53052;SDS011;38934;52.690;6.184;2024-03-25T08:39:37;14.13;;;3.72;;
53052;SDS011;38934;52.690;6.184;2024-03-25T08:42:02;16.80;;;4.20;;
53052;SDS011;38934;52.690;6.184;2024-03-25T08:44:28;21.10;;;3.92;;
53052;SDS011;38934;52.690;6.184;2024-03-25T08:46:54;19.17;;;4.55;;
53052;SDS011;38934;52.690;6.184;2024-03-25T08:49:19;16.13;;;3.95;;
53052;SDS011;38934;52.690;6.184;2024-03-25T08:51:45;15.10;;;3.92;;
53052;SDS011;38934;52.690;6.184;2024-03-25T08:54:11;15.32;;;3.65;;
53052;SDS011;38934;52.690;6.184;2024-03-25T08:56:36;12.50;;;3.20;;
53052;SDS011;38934;52.690;6.184;2024-03-25T08:59:02;15.35;;;3.78;;
53052;SDS011;38934;52.690;6.184;2024-03-25T09:01:28;12.77;;;3.05;;
53052;SDS011;38934;52.690;6.184;2024-03-25T09:03:55;14.82;;;3.47;;
53052;SDS011;38934;52.690;6.184;2024-03-25T09:06:21;20.73;;;3.50;;
53052;SDS011;38934;52.690;6.184;2024-03-25T09:08:47;11.43;;;3.45;;
53052;SDS011;38934;52.690;6.184;2024-03-25T09:11:31;10.73;;;2.90;;
53052;SDS011;38934;52.690;6.184;2024-03-25T09:13:57;19.38;;;3.90;;
53052;SDS011;38934;52.690;6.184;2024-03-25T09:16:23;13.68;;;3.10;;
53052;SDS011;38934;52.690;6.184;2024-03-25T09:18:48;13.40;;;2.85;;
53052;SDS011;38934;52.690;6.184;2024-03-25T09:21:14;10.48;;;2.75;;
53052;SDS011;38934;52.690;6.184;2024-03-25T09:23:40;9.32;;;2.40;;
53052;SDS011;38934;52.690;6.184;2024-03-25T09:26:05;13.45;;;2.58;;
53052;SDS011;38934;52.690;6.184;2024-03-25T09:28:31;18.35;;;2.85;;
53052;SDS011;38934;52.690;6.184;2024-03-25T09:30:57;12.00;;;2.30;;
53052;SDS011;38934;52.690;6.184;2024-03-25T09:33:22;9.90;;;2.35;;
53052;SDS011;38934;52.690;6.184;2024-03-25T09:35:48;11.90;;;2.75;;
53052;SDS011;38934;52.690;6.184;2024-03-25T09:38:14;13.00;;;2.53;;
53052;SDS011;38934;52.690;6.184;2024-03-25T09:40:40;9.18;;;2.15;;
53052;SDS011;38934;52.690;6.184;2024-03-25T09:43:08;13.93;;;2.63;;
53052;SDS011;38934;52.690;6.184;2024-03-25T09:45:44;12.68;;;2.40;;
53052;SDS011;38934;52.690;6.184;2024-03-25T09:48:13;11.75;;;3.10;;
53052;SDS011;38934;52.690;6.184;2024-03-25T09:50:44;11.05;;;2.72;;
53052;SDS011;38934;52.690;6.184;2024-03-25T09:53:10;12.30;;;2.35;;
53052;SDS011;38934;52.690;6.184;2024-03-25T09:55:36;12.07;;;2.67;;
53052;SDS011;38934;52.690;6.184;2024-03-25T09:58:02;7.38;;;2.28;;
53052;SDS011;38934;52.690;6.184;2024-03-25T10:00:29;12.05;;;2.67;;
53052;SDS011;38934;52.690;6.184;2024-03-25T10:02:55;8.13;;;2.38;;
53052;SDS011;38934;52.690;6.184;2024-03-25T10:05:21;9.95;;;2.30;;
53052;SDS011;38934;52.690;6.184;2024-03-25T10:07:47;9.90;;;2.42;;
53052;SDS011;38934;52.690;6.184;2024-03-25T10:10:12;12.48;;;2.70;;
53052;SDS011;38934;52.690;6.184;2024-03-25T10:12:38;10.80;;;2.50;;
53052;SDS011;38934;52.690;6.184;2024-03-25T10:15:06;12.35;;;2.95;;
53052;SDS011;38934;52.690;6.184;2024-03-25T10:17:32;10.95;;;2.40;;
53052;SDS011;38934;52.690;6.184;2024-03-25T10:19:57;10.38;;;2.42;;
53052;SDS011;38934;52.690;6.184;2024-03-25T10:22:23;7.20;;;2.53;;
53052;SDS011;38934;52.690;6.184;2024-03-25T10:24:49;9.30;;;2.47;;
53052;SDS011;38934;52.690;6.184;2024-03-25T10:27:19;11.65;;;2.70;;
53052;SDS011;38934;52.690;6.184;2024-03-25T10:29:54;11.50;;;2.63;;
53052;SDS011;38934;52.690;6.184;2024-03-25T10:32:22;11.90;;;2.60;;
53052;SDS011;38934;52.690;6.184;2024-03-25T10:34:49;12.07;;;2.47;;
53052;SDS011;38934;52.690;6.184;2024-03-25T10:37:15;11.48;;;2.53;;
53052;SDS011;38934;52.690;6.184;2024-03-25T10:39:43;10.20;;;2.58;;
53052;SDS011;38934;52.690;6.184;2024-03-25T10:42:13;14.50;;;2.55;;
53052;SDS011;38934;52.690;6.184;2024-03-25T10:44:43;7.30;;;2.13;;
53052;SDS011;38934;52.690;6.184;2024-03-25T10:47:09;9.15;;;2.10;;
53052;SDS011;38934;52.690;6.184;2024-03-25T10:49:59;9.30;;;2.45;;
53052;SDS011;38934;52.690;6.184;2024-03-25T10:52:34;7.18;;;2.35;;
53052;SDS011;38934;52.690;6.184;2024-03-25T10:55:02;10.27;;;3.28;;
53052;SDS011;38934;52.690;6.184;2024-03-25T10:57:28;9.65;;;2.70;;
53052;SDS011;38934;52.690;6.184;2024-03-25T10:59:55;7.45;;;2.42;;
53052;SDS011;38934;52.690;6.184;2024-03-25T11:02:22;10.45;;;2.40;;
53052;SDS011;38934;52.690;6.184;2024-03-25T11:04:49;10.02;;;2.30;;
53052;SDS011;38934;52.690;6.184;2024-03-25T11:07:16;11.27;;;2.80;;
53052;SDS011;38934;52.690;6.184;2024-03-25T11:09:42;15.05;;;3.75;;
53052;SDS011;38934;52.690;6.184;2024-03-25T11:12:11;13.68;;;4.05;;
53052;SDS011;38934;52.690;6.184;2024-03-25T11:14:38;10.20;;;3.00;;
53052;SDS011;38934;52.690;6.184;2024-03-25T11:17:14;14.25;;;3.75;;
53052;SDS011;38934;52.690;6.184;2024-03-25T11:19:40;10.93;;;3.38;;
53052;SDS011;38934;52.690;6.184;2024-03-25T11:22:07;10.43;;;2.72;;
53052;SDS011;38934;52.690;6.184;2024-03-25T11:24:36;10.35;;;2.45;;
53052;SDS011;38934;52.690;6.184;2024-03-25T11:27:06;7.93;;;2.53;;
53052;SDS011;38934;52.690;6.184;2024-03-25T11:29:32;7.50;;;2.20;;
53052;SDS011;38934;52.690;6.184;2024-03-25T11:32:04;8.20;;;2.63;;
53052;SDS011;38934;52.690;6.184;2024-03-25T11:34:30;9.05;;;2.30;;
53052;SDS011;38934;52.690;6.184;2024-03-25T11:36:57;8.95;;;2.80;;
53052;SDS011;38934;52.690;6.184;2024-03-25T11:39:23;8.88;;;2.50;;
53052;SDS011;38934;52.690;6.184;2024-03-25T11:41:51;9.60;;;2.60;;
53052;SDS011;38934;52.690;6.184;2024-03-25T11:44:17;8.55;;;2.25;;
53052;SDS011;38934;52.690;6.184;2024-03-25T11:46:43;10.13;;;2.10;;
53052;SDS011;38934;52.690;6.184;2024-03-25T11:49:12;7.38;;;2.00;;
53052;SDS011;38934;52.690;6.184;2024-03-25T11:51:39;8.82;;;2.20;;
53052;SDS011;38934;52.690;6.184;2024-03-25T11:54:06;9.45;;;2.30;;
53052;SDS011;38934;52.690;6.184;2024-03-25T11:56:35;7.30;;;2.08;;
53052;SDS011;38934;52.690;6.184;2024-03-25T11:59:02;6.65;;;2.42;;
53052;SDS011;38934;52.690;6.184;2024-03-25T12:01:29;9.32;;;2.28;;
53052;SDS011;38934;52.690;6.184;2024-03-25T12:03:55;9.48;;;2.50;;
53052;SDS011;38934;52.690;6.184;2024-03-25T12:06:21;6.00;;;2.00;;
53052;SDS011;38934;52.690;6.184;2024-03-25T12:08:47;8.07;;;2.58;;
53052;SDS011;38934;52.690;6.184;2024-03-25T12:11:31;7.72;;;2.15;;
53052;SDS011;38934;52.690;6.184;2024-03-25T12:13:57;8.43;;;2.15;;
53052;SDS011;38934;52.690;6.184;2024-03-25T12:16:24;7.88;;;2.33;;
53052;SDS011;38934;52.690;6.184;2024-03-25T12:18:50;7.03;;;1.90;;
53052;SDS011;38934;52.690;6.184;2024-03-25T12:21:18;8.88;;;2.22;;
53052;SDS011;38934;52.690;6.184;2024-03-25T12:23:44;6.75;;;1.90;;
53052;SDS011;38934;52.690;6.184;2024-03-25T12:26:11;4.72;;;1.88;;
53052;SDS011;38934;52.690;6.184;2024-03-25T12:28:37;8.55;;;2.03;;
53052;SDS011;38934;52.690;6.184;2024-03-25T12:31:07;5.22;;;1.80;;
53052;SDS011;38934;52.690;6.184;2024-03-25T12:33:43;7.47;;;1.95;;
53052;SDS011;38934;52.690;6.184;2024-03-25T12:36:12;9.07;;;2.53;;
53052;SDS011;38934;52.690;6.184;2024-03-25T12:38:38;8.90;;;2.50;;
53052;SDS011;38934;52.690;6.184;2024-03-25T12:41:04;10.43;;;2.40;;
53052;SDS011;38934;52.690;6.184;2024-03-25T12:43:35;8.65;;;2.10;;
53052;SDS011;38934;52.690;6.184;2024-03-25T12:46:08;8.48;;;2.75;;
53052;SDS011;38934;52.690;6.184;2024-03-25T12:48:35;11.05;;;2.38;;
53052;SDS011;38934;52.690;6.184;2024-03-25T12:51:01;7.53;;;1.90;;
53052;SDS011;38934;52.690;6.184;2024-03-25T12:53:27;9.35;;;2.30;;
53052;SDS011;38934;52.690;6.184;2024-03-25T12:55:53;6.95;;;2.63;;
53052;SDS011;38934;52.690;6.184;2024-03-25T12:58:19;8.93;;;2.20;;
53052;SDS011;38934;52.690;6.184;2024-03-25T13:00:44;9.07;;;2.30;;
53052;SDS011;38934;52.690;6.184;2024-03-25T13:03:10;8.07;;;2.30;;
53052;SDS011;38934;52.690;6.184;2024-03-25T13:05:37;7.80;;;2.30;;
53052;SDS011;38934;52.690;6.184;2024-03-25T13:08:03;11.82;;;2.60;;
53052;SDS011;38934;52.690;6.184;2024-03-25T13:10:29;7.80;;;2.70;;
53052;SDS011;38934;52.690;6.184;2024-03-25T13:12:56;7.47;;;2.40;;
53052;SDS011;38934;52.690;6.184;2024-03-25T13:15:22;7.78;;;2.28;;
53052;SDS011;38934;52.690;6.184;2024-03-25T13:17:50;8.57;;;2.30;;
53052;SDS011;38934;52.690;6.184;2024-03-25T13:20:15;5.38;;;2.00;;
53052;SDS011;38934;52.690;6.184;2024-03-25T13:22:41;6.68;;;2.03;;
53052;SDS011;38934;52.690;6.184;2024-03-25T13:25:08;7.97;;;2.13;;
53052;SDS011;38934;52.690;6.184;2024-03-25T13:27:34;9.15;;;2.85;;
53052;SDS011;38934;52.690;6.184;2024-03-25T13:29:59;10.98;;;3.17;;
53052;SDS011;38934;52.690;6.184;2024-03-25T13:32:25;7.53;;;2.38;;
53052;SDS011;38934;52.690;6.184;2024-03-25T13:34:51;7.22;;;2.08;;
53052;SDS011;38934;52.690;6.184;2024-03-25T13:37:16;6.88;;;2.03;;
53052;SDS011;38934;52.690;6.184;2024-03-25T13:39:42;8.18;;;1.85;;
53052;SDS011;38934;52.690;6.184;2024-03-25T13:42:08;3.67;;;1.92;;
53052;SDS011;38934;52.690;6.184;2024-03-25T13:44:33;4.93;;;1.60;;
53052;SDS011;38934;52.690;6.184;2024-03-25T13:46:59;6.85;;;1.98;;
53052;SDS011;38934;52.690;6.184;2024-03-25T13:49:24;6.90;;;2.15;;
53052;SDS011;38934;52.690;6.184;2024-03-25T13:51:50;7.78;;;2.28;;
53052;SDS011;38934;52.690;6.184;2024-03-25T13:54:21;5.75;;;2.00;;
53052;SDS011;38934;52.690;6.184;2024-03-25T13:56:47;6.13;;;2.08;;
53052;SDS011;38934;52.690;6.184;2024-03-25T13:59:13;6.95;;;2.08;;
53052;SDS011;38934;52.690;6.184;2024-03-25T14:01:39;4.90;;;1.98;;
53052;SDS011;38934;52.690;6.184;2024-03-25T14:04:05;4.70;;;1.80;;
53052;SDS011;38934;52.690;6.184;2024-03-25T14:06:31;6.13;;;1.73;;
53052;SDS011;38934;52.690;6.184;2024-03-25T14:08:58;6.55;;;1.92;;
53052;SDS011;38934;52.690;6.184;2024-03-25T14:11:24;5.80;;;1.80;;
53052;SDS011;38934;52.690;6.184;2024-03-25T14:13:50;4.93;;;2.40;;
53052;SDS011;38934;52.690;6.184;2024-03-25T14:16:15;7.93;;;2.38;;
53052;SDS011;38934;52.690;6.184;2024-03-25T14:18:41;5.20;;;1.63;;
53052;SDS011;38934;52.690;6.184;2024-03-25T14:21:07;10.27;;;2.03;;
53052;SDS011;38934;52.690;6.184;2024-03-25T14:23:33;5.00;;;1.80;;
53052;SDS011;38934;52.690;6.184;2024-03-25T14:25:58;5.28;;;1.60;;
53052;SDS011;38934;52.690;6.184;2024-03-25T14:28:24;6.13;;;1.65;;
53052;SDS011;38934;52.690;6.184;2024-03-25T14:30:50;7.05;;;2.20;;
53052;SDS011;38934;52.690;6.184;2024-03-25T14:33:16;6.00;;;1.92;;
53052;SDS011;38934;52.690;6.184;2024-03-25T14:35:42;6.07;;;2.13;;
53052;SDS011;38934;52.690;6.184;2024-03-25T14:38:08;7.78;;;2.00;;